Zoar, Indiana
Current Conditions -  °F | °C
As of 5:15 AM on Monday 20 Oct 2014 (Local Time) from KHNB Reporting Station
Broken Clouds Broken Clouds  
Wind Chill: 48°   Ceiling: 4500
Heat Index: 48°   Visibility: 7mi
Dew Point: 45°   Wind: 3mph
Humidity: 87%   Direction: 220°SW
Pressure: 30.03"   Gusts: NA
Location:  38.277°N, 87.1283°W
Report Text: KHNB 201015Z AUTO 22003KT 7SM FEW029 SCT035 BKN045 09/07 A3003 RMK AO1 P0001
Loading
Personal Weather Stations






























Interactive Weather Map
Tropical Storm Tracking
New forecast layout! Learn more

10-Day Weather Forecast

Advertisements
Track Severe Weather on mobile